Milwaukee, Wisconsin
Traffic Map
Current Weather Conditions
Milwaukee, Wisconsin
Few Clouds
Few Clouds
60°
Feels Like: 60°
Wind Chill: 60° Ceiling: Unl
Heat Index: 60° Visibility: 10mi
Dew Point: 55° Wind: 7mph
Humidity: 83% Direction: 280° (W)
Pressure: 30in Gusts: 0mph
Raw Report DataKMKE 300652Z 28006KT 10SM FEW090 16/13 A3000 RMK AO2 SLP155 T01560128
Traffic Incident Summary
Active as of:
Severity:
Category:
InformationThere was an issue retrieving the traffic information for this location. Please try a different location or try again shortly.
Advertisements
Track Severe Weather on mobile